createdAt,value
2022-09-13T05:02:56.101Z,61.93
2022-09-13T05:08:16.839Z,61.77
2022-09-13T05:13:37.880Z,61.55
2022-09-13T05:18:59.410Z,61.32
2022-09-13T05:24:20.447Z,61.50
2022-09-13T05:29:41.187Z,61.99
2022-09-13T05:35:02.071Z,61.23
2022-09-13T05:40:22.930Z,61.12
2022-09-13T05:45:43.591Z,61.11
2022-09-13T05:51:08.726Z,61.66
2022-09-13T05:56:30.251Z,61.17
2022-09-13T06:01:51.388Z,60.74
2022-09-13T06:07:12.445Z,60.68
2022-09-13T06:12:33.287Z,60.57
2022-09-13T06:17:54.028Z,61.06
2022-09-13T06:23:15.332Z,60.74
2022-09-13T06:28:37.739Z,60.92
2022-09-13T06:34:00.941Z,60.71
2022-09-13T06:39:21.640Z,61.10
2022-09-13T06:44:42.445Z,61.99
2022-09-13T06:50:02.850Z,60.99
2022-09-13T06:55:23.559Z,61.87
2022-09-13T07:00:44.507Z,61.26
2022-09-13T07:06:22.209Z,61.08
2022-09-13T07:11:45.238Z,61.75
2022-09-13T07:17:06.350Z,60.92
2022-09-13T07:22:27.958Z,60.94
2022-09-13T07:27:48.800Z,61.06
2022-09-13T07:33:09.480Z,61.65
2022-09-13T07:38:30.437Z,60.62
2022-09-13T07:43:52.396Z,60.51
2022-09-13T07:49:15.052Z,60.22
2022-09-13T07:54:38.083Z,60.50
2022-09-13T07:59:59.062Z,60.36
2022-09-13T08:05:19.760Z,60.25
2022-09-13T08:10:40.639Z,60.07
2022-09-13T08:16:02.808Z,60.39
2022-09-13T08:21:25.341Z,59.96
2022-09-13T08:26:46.443Z,59.08
2022-09-13T08:32:07.231Z,58.84
2022-09-13T08:37:28.051Z,59.43
2022-09-13T08:43:08.197Z,53.23
2022-09-13T08:48:39.942Z,52.00
2022-09-13T08:54:01.051Z,53.99
2022-09-13T08:59:46.349Z,55.38
2022-09-13T09:05:29.173Z,54.51
2022-09-13T09:10:53.274Z,53.90
2022-09-13T09:16:14.197Z,52.34
2022-09-13T09:21:35.022Z,53.54
2022-09-13T09:26:58.186Z,53.73
2022-09-13T09:32:41.152Z,53.80
2022-09-13T09:38:37.256Z,46.54
2022-09-13T09:44:21.235Z,48.67
2022-09-13T09:50:10.120Z,50.16
2022-09-13T09:55:32.298Z,50.70
2022-09-13T10:00:56.008Z,49.85
2022-09-13T10:06:21.791Z,49.50
2022-09-13T10:11:59.149Z,50.10
2022-09-13T10:17:28.358Z,50.94
2022-09-13T10:23:13.645Z,50.84
2022-09-13T10:28:44.023Z,51.46
2022-09-13T10:34:13.707Z,52.08
2022-09-13T10:39:36.755Z,52.79
2022-09-13T10:45:22.278Z,53.48
2022-09-13T10:51:21.291Z,54.07
2022-09-13T10:56:43.892Z,54.22
2022-09-13T11:02:29.348Z,55.08
2022-09-13T11:08:02.054Z,55.07
2022-09-13T11:13:46.013Z,55.35
2022-09-13T11:19:27.074Z,54.66
2022-09-13T11:25:03.240Z,54.56
2022-09-13T11:30:29.842Z,53.05
2022-09-13T11:36:21.843Z,52.13
2022-09-13T11:41:53.462Z,51.65
2022-09-13T11:47:17.161Z,52.53
2022-09-13T11:53:00.136Z,54.78
2022-09-13T11:58:37.940Z,55.55
2022-09-13T12:04:13.930Z,56.41
2022-09-13T12:09:50.019Z,56.65
2022-09-13T12:15:30.392Z,57.62
2022-09-13T12:21:10.287Z,57.51
2022-09-13T12:26:39.789Z,57.08
2022-09-13T12:32:04.943Z,57.05
2022-09-13T12:37:29.003Z,57.63
2022-09-13T12:43:02.099Z,58.06
2022-09-13T12:48:41.959Z,59.44
2022-09-13T12:54:36.963Z,59.46
2022-09-13T13:00:20.750Z,58.45
2022-09-13T13:05:43.505Z,56.77
2022-09-13T13:11:06.692Z,55.84
2022-09-13T13:16:37.808Z,55.17
2022-09-13T13:22:35.947Z,56.07
2022-09-13T13:27:58.571Z,54.96
2022-09-13T13:33:23.375Z,55.53
2022-09-13T13:38:49.232Z,55.89
2022-09-13T13:44:31.742Z,56.02
2022-09-13T13:50:12.758Z,55.04
2022-09-13T13:55:33.920Z,54.56
2022-09-13T14:00:55.894Z,54.76
2022-09-13T14:06:28.337Z,55.01
2022-09-13T14:12:00.249Z,55.12
2022-09-13T14:17:29.455Z,55.03
2022-09-13T14:22:50.296Z,54.85
2022-09-13T14:28:20.019Z,55.41
2022-09-13T14:33:41.244Z,55.60
2022-09-13T14:39:02.311Z,55.62
2022-09-13T14:44:28.910Z,56.01
2022-09-13T14:49:58.721Z,56.96
2022-09-13T14:55:25.767Z,57.18
2022-09-13T15:00:55.896Z,57.52
2022-09-13T15:06:25.690Z,58.11
2022-09-13T15:11:53.307Z,58.89
2022-09-13T15:17:14.617Z,58.61
2022-09-13T15:22:35.725Z,58.63
2022-09-13T15:27:57.671Z,58.87
2022-09-13T15:33:30.570Z,59.06
2022-09-13T15:39:16.944Z,59.89
2022-09-13T15:44:41.959Z,59.22
2022-09-13T15:50:03.448Z,59.52
2022-09-13T15:55:25.962Z,59.59
2022-09-13T16:00:47.138Z,59.53
2022-09-13T16:06:09.579Z,59.75
2022-09-13T16:11:30.503Z,60.04
2022-09-13T16:16:52.112Z,60.19
2022-09-13T16:22:13.060Z,60.12
2022-09-13T16:27:34.313Z,60.49
2022-09-13T16:32:55.396Z,60.73
2022-09-13T16:38:16.230Z,60.92
2022-09-13T16:43:37.157Z,61.11
2022-09-13T16:48:58.092Z,61.37
2022-09-13T16:54:19.294Z,61.31
2022-09-13T16:59:41.403Z,61.83
2022-09-13T17:05:01.945Z,61.77
2022-09-13T17:10:22.899Z,61.96
2022-09-13T17:15:43.762Z,62.00
2022-09-13T17:21:04.662Z,62.28
2022-09-13T17:26:25.547Z,62.40
2022-09-13T17:31:46.878Z,62.78
2022-09-13T17:37:07.624Z,62.98
2022-09-13T17:42:28.390Z,63.01
2022-09-13T17:47:53.020Z,63.31
2022-09-13T17:53:13.787Z,63.21
2022-09-13T17:58:35.501Z,63.34
2022-09-13T18:03:56.360Z,63.36
2022-09-13T18:09:17.296Z,63.50
2022-09-13T18:14:39.030Z,63.48
2022-09-13T18:19:59.614Z,63.69
2022-09-13T18:25:23.505Z,63.73
2022-09-13T18:30:52.128Z,63.90
2022-09-13T18:36:15.944Z,63.87
2022-09-13T18:41:40.683Z,63.99
2022-09-13T18:47:02.947Z,64.34
2022-09-13T18:52:23.974Z,64.41
2022-09-13T18:57:44.603Z,64.30
2022-09-13T19:03:12.322Z,64.64
2022-09-13T19:08:33.614Z,64.70
2022-09-13T19:13:54.552Z,64.64
2022-09-13T19:19:16.025Z,64.78
2022-09-13T19:24:38.376Z,64.79
2022-09-13T19:29:59.312Z,65.17
2022-09-13T19:35:22.065Z,64.92
2022-09-13T19:40:43.197Z,65.17
2022-09-13T19:46:07.160Z,65.35
2022-09-13T19:51:30.730Z,65.41
2022-09-13T19:56:51.887Z,65.38
2022-09-13T20:02:13.867Z,65.61
2022-09-13T20:07:34.829Z,65.64
2022-09-13T20:12:55.997Z,65.92
2022-09-13T20:18:17.245Z,65.84
2022-09-13T20:23:39.781Z,65.78
2022-09-13T20:29:03.853Z,65.84
2022-09-13T20:34:25.076Z,66.30
2022-09-13T20:39:45.673Z,66.53
2022-09-13T20:45:07.456Z,65.78
2022-09-13T20:50:28.961Z,65.93
2022-09-13T20:55:49.974Z,65.98
2022-09-13T21:01:14.249Z,66.59
2022-09-13T21:07:02.645Z,66.19
2022-09-13T21:12:24.447Z,66.29
2022-09-13T21:17:45.205Z,66.47
2022-09-13T21:23:06.277Z,66.35
2022-09-13T21:28:27.121Z,66.61
2022-09-13T21:33:47.906Z,66.49
2022-09-13T21:39:09.171Z,66.38
2022-09-13T21:44:30.967Z,66.75
